sensor_id;sensor_type;location;lat;lon;timestamp;temperature;humidity
44509;DHT22;30214;52.246;14.408;2023-12-20T00:01:41;5.70;99.90
44509;DHT22;30214;52.246;14.408;2023-12-20T00:04:10;5.70;99.90
44509;DHT22;30214;52.246;14.408;2023-12-20T00:06:38;5.70;99.90
44509;DHT22;30214;52.246;14.408;2023-12-20T00:09:07;5.70;99.90
44509;DHT22;30214;52.246;14.408;2023-12-20T00:11:35;5.70;99.90
44509;DHT22;30214;52.246;14.408;2023-12-20T00:14:03;5.70;99.90
44509;DHT22;30214;52.246;14.408;2023-12-20T00:16:32;5.70;99.90
44509;DHT22;30214;52.246;14.408;2023-12-20T00:19:01;5.80;99.90
44509;DHT22;30214;52.246;14.408;2023-12-20T00:21:29;5.80;99.90
44509;DHT22;30214;52.246;14.408;2023-12-20T00:23:56;5.70;99.90
44509;DHT22;30214;52.246;14.408;2023-12-20T00:26:23;5.70;99.90
44509;DHT22;30214;52.246;14.408;2023-12-20T00:31:34;5.70;99.90
44509;DHT22;30214;52.246;14.408;2023-12-20T00:34:09;5.70;99.90
44509;DHT22;30214;52.246;14.408;2023-12-20T00:36:37;5.70;99.90
44509;DHT22;30214;52.246;14.408;2023-12-20T00:39:11;5.70;99.90
44509;DHT22;30214;52.246;14.408;2023-12-20T00:41:40;5.70;99.90
44509;DHT22;30214;52.246;14.408;2023-12-20T00:44:09;5.70;99.90
44509;DHT22;30214;52.246;14.408;2023-12-20T00:46:36;5.60;99.90
44509;DHT22;30214;52.246;14.408;2023-12-20T00:49:03;5.70;99.90
44509;DHT22;30214;52.246;14.408;2023-12-20T00:51:35;5.60;99.90
44509;DHT22;30214;52.246;14.408;2023-12-20T00:54:08;5.60;99.90
44509;DHT22;30214;52.246;14.408;2023-12-20T00:56:36;5.60;99.90
44509;DHT22;30214;52.246;14.408;2023-12-20T00:59:03;5.60;99.90
44509;DHT22;30214;52.246;14.408;2023-12-20T01:01:38;5.60;99.90
44509;DHT22;30214;52.246;14.408;2023-12-20T01:04:08;5.60;99.90
44509;DHT22;30214;52.246;14.408;2023-12-20T01:06:56;5.60;99.90
44509;DHT22;30214;52.246;14.408;2023-12-20T01:09:55;5.60;99.90
44509;DHT22;30214;52.246;14.408;2023-12-20T01:12:45;5.60;99.90
44509;DHT22;30214;52.246;14.408;2023-12-20T01:15:15;5.60;99.90
44509;DHT22;30214;52.246;14.408;2023-12-20T01:17:43;5.70;99.90
44509;DHT22;30214;52.246;14.408;2023-12-20T01:20:13;5.70;99.90
44509;DHT22;30214;52.246;14.408;2023-12-20T01:22:44;5.70;99.90
44509;DHT22;30214;52.246;14.408;2023-12-20T01:25:11;5.70;99.90
44509;DHT22;30214;52.246;14.408;2023-12-20T01:27:39;5.70;99.90
44509;DHT22;30214;52.246;14.408;2023-12-20T01:30:09;5.70;99.90
44509;DHT22;30214;52.246;14.408;2023-12-20T01:32:41;5.70;99.90
44509;DHT22;30214;52.246;14.408;2023-12-20T01:35:11;5.60;99.90
44509;DHT22;30214;52.246;14.408;2023-12-20T01:37:39;5.60;99.90
44509;DHT22;30214;52.246;14.408;2023-12-20T01:40:14;5.70;99.90
44509;DHT22;30214;52.246;14.408;2023-12-20T01:42:44;5.60;99.90
44509;DHT22;30214;52.246;14.408;2023-12-20T01:45:14;5.60;99.90
44509;DHT22;30214;52.246;14.408;2023-12-20T01:47:42;5.60;99.90
44509;DHT22;30214;52.246;14.408;2023-12-20T01:50:10;5.70;99.90
44509;DHT22;30214;52.246;14.408;2023-12-20T01:52:38;5.70;99.90
44509;DHT22;30214;52.246;14.408;2023-12-20T01:55:10;5.60;99.90
44509;DHT22;30214;52.246;14.408;2023-12-20T01:57:43;5.60;99.90
44509;DHT22;30214;52.246;14.408;2023-12-20T02:00:18;5.70;99.90
44509;DHT22;30214;52.246;14.408;2023-12-20T02:02:53;5.70;99.90
44509;DHT22;30214;52.246;14.408;2023-12-20T02:05:23;5.70;99.90
44509;DHT22;30214;52.246;14.408;2023-12-20T02:07:53;5.70;99.90
44509;DHT22;30214;52.246;14.408;2023-12-20T02:10:25;5.70;99.90
44509;DHT22;30214;52.246;14.408;2023-12-20T02:12:56;5.60;99.90
44509;DHT22;30214;52.246;14.408;2023-12-20T02:15:26;5.60;99.90
44509;DHT22;30214;52.246;14.408;2023-12-20T02:17:55;5.70;99.90
44509;DHT22;30214;52.246;14.408;2023-12-20T02:20:23;5.70;99.90
44509;DHT22;30214;52.246;14.408;2023-12-20T02:22:54;5.70;99.90
44509;DHT22;30214;52.246;14.408;2023-12-20T02:25:22;5.70;99.90
44509;DHT22;30214;52.246;14.408;2023-12-20T02:27:49;5.60;99.90
44509;DHT22;30214;52.246;14.408;2023-12-20T02:30:17;5.60;99.90
44509;DHT22;30214;52.246;14.408;2023-12-20T02:32:47;5.60;99.90
44509;DHT22;30214;52.246;14.408;2023-12-20T02:35:14;5.60;99.90
44509;DHT22;30214;52.246;14.408;2023-12-20T02:37:42;5.60;99.90
44509;DHT22;30214;52.246;14.408;2023-12-20T02:40:15;5.60;99.90
44509;DHT22;30214;52.246;14.408;2023-12-20T02:42:47;5.60;99.90
44509;DHT22;30214;52.246;14.408;2023-12-20T02:45:15;5.60;99.90
44509;DHT22;30214;52.246;14.408;2023-12-20T02:47:44;5.60;99.90
44509;DHT22;30214;52.246;14.408;2023-12-20T02:50:11;5.60;99.90
44509;DHT22;30214;52.246;14.408;2023-12-20T02:52:44;5.60;99.90
44509;DHT22;30214;52.246;14.408;2023-12-20T02:55:15;5.60;99.90
44509;DHT22;30214;52.246;14.408;2023-12-20T02:57:43;5.60;99.90
44509;DHT22;30214;52.246;14.408;2023-12-20T03:00:14;5.60;99.90
44509;DHT22;30214;52.246;14.408;2023-12-20T03:02:41;5.60;99.90
44509;DHT22;30214;52.246;14.408;2023-12-20T03:05:09;5.60;99.90
44509;DHT22;30214;52.246;14.408;2023-12-20T03:07:37;5.60;99.90
44509;DHT22;30214;52.246;14.408;2023-12-20T03:10:07;5.60;99.90
44509;DHT22;30214;52.246;14.408;2023-12-20T03:12:39;5.60;99.90
44509;DHT22;30214;52.246;14.408;2023-12-20T03:15:08;5.60;99.90
44509;DHT22;30214;52.246;14.408;2023-12-20T03:17:37;5.60;99.90
44509;DHT22;30214;52.246;14.408;2023-12-20T03:20:08;5.60;99.90
44509;DHT22;30214;52.246;14.408;2023-12-20T03:22:38;5.60;99.90
44509;DHT22;30214;52.246;14.408;2023-12-20T03:25:26;5.60;99.90
44509;DHT22;30214;52.246;14.408;2023-12-20T03:27:55;5.60;99.90
44509;DHT22;30214;52.246;14.408;2023-12-20T03:30:25;5.60;99.90
44509;DHT22;30214;52.246;14.408;2023-12-20T03:32:53;5.60;99.90
44509;DHT22;30214;52.246;14.408;2023-12-20T03:35:25;5.60;99.90
44509;DHT22;30214;52.246;14.408;2023-12-20T03:38:06;5.60;99.90
44509;DHT22;30214;52.246;14.408;2023-12-20T03:40:34;5.60;99.90
44509;DHT22;30214;52.246;14.408;2023-12-20T03:43:08;5.60;99.90
44509;DHT22;30214;52.246;14.408;2023-12-20T03:45:38;5.70;99.90
44509;DHT22;30214;52.246;14.408;2023-12-20T03:48:09;5.70;99.90
44509;DHT22;30214;52.246;14.408;2023-12-20T03:50:38;5.70;99.90
44509;DHT22;30214;52.246;14.408;2023-12-20T03:53:11;5.80;99.90
44509;DHT22;30214;52.246;14.408;2023-12-20T03:55:47;5.80;99.90
44509;DHT22;30214;52.246;14.408;2023-12-20T03:58:39;5.80;99.90
44509;DHT22;30214;52.246;14.408;2023-12-20T04:01:10;5.80;99.90
44509;DHT22;30214;52.246;14.408;2023-12-20T04:03:40;5.90;99.90
44509;DHT22;30214;52.246;14.408;2023-12-20T04:06:10;5.90;99.90
44509;DHT22;30214;52.246;14.408;2023-12-20T04:08:47;6.00;99.90
44509;DHT22;30214;52.246;14.408;2023-12-20T04:11:14;6.00;99.90
44509;DHT22;30214;52.246;14.408;2023-12-20T04:13:46;6.10;99.90
44509;DHT22;30214;52.246;14.408;2023-12-20T04:16:24;6.10;99.90
44509;DHT22;30214;52.246;14.408;2023-12-20T04:18:51;6.10;99.90
44509;DHT22;30214;52.246;14.408;2023-12-20T04:21:22;6.10;99.90
44509;DHT22;30214;52.246;14.408;2023-12-20T04:23:50;6.10;99.90
44509;DHT22;30214;52.246;14.408;2023-12-20T04:26:19;6.10;99.90
44509;DHT22;30214;52.246;14.408;2023-12-20T04:28:48;6.00;99.90
44509;DHT22;30214;52.246;14.408;2023-12-20T04:31:17;6.00;99.90
44509;DHT22;30214;52.246;14.408;2023-12-20T04:33:44;5.90;99.90
44509;DHT22;30214;52.246;14.408;2023-12-20T04:36:11;5.90;99.90
44509;DHT22;30214;52.246;14.408;2023-12-20T04:38:43;5.90;99.90
44509;DHT22;30214;52.246;14.408;2023-12-20T04:41:10;5.90;99.90
44509;DHT22;30214;52.246;14.408;2023-12-20T04:43:41;5.90;99.90
44509;DHT22;30214;52.246;14.408;2023-12-20T04:46:10;5.90;99.90
44509;DHT22;30214;52.246;14.408;2023-12-20T04:48:37;5.90;99.90
44509;DHT22;30214;52.246;14.408;2023-12-20T04:51:07;5.80;99.90
44509;DHT22;30214;52.246;14.408;2023-12-20T04:53:35;5.80;99.90
44509;DHT22;30214;52.246;14.408;2023-12-20T04:56:03;5.90;99.90
44509;DHT22;30214;52.246;14.408;2023-12-20T04:58:33;5.90;99.90
44509;DHT22;30214;52.246;14.408;2023-12-20T05:01:01;5.90;99.90
44509;DHT22;30214;52.246;14.408;2023-12-20T05:03:31;5.90;99.90
44509;DHT22;30214;52.246;14.408;2023-12-20T05:05:58;5.80;99.90
44509;DHT22;30214;52.246;14.408;2023-12-20T05:08:26;5.80;99.90
44509;DHT22;30214;52.246;14.408;2023-12-20T05:10:54;5.70;99.90
44509;DHT22;30214;52.246;14.408;2023-12-20T05:13:21;5.70;99.90
44509;DHT22;30214;52.246;14.408;2023-12-20T05:15:49;5.60;99.90
44509;DHT22;30214;52.246;14.408;2023-12-20T05:18:16;5.70;99.90
44509;DHT22;30214;52.246;14.408;2023-12-20T05:20:45;5.70;99.90
44509;DHT22;30214;52.246;14.408;2023-12-20T05:23:13;5.70;99.90
44509;DHT22;30214;52.246;14.408;2023-12-20T05:25:40;5.70;99.90
44509;DHT22;30214;52.246;14.408;2023-12-20T05:28:08;5.60;99.90
44509;DHT22;30214;52.246;14.408;2023-12-20T05:30:35;5.60;99.90
44509;DHT22;30214;52.246;14.408;2023-12-20T05:33:03;5.60;99.90
44509;DHT22;30214;52.246;14.408;2023-12-20T05:35:31;5.60;99.90
44509;DHT22;30214;52.246;14.408;2023-12-20T05:38:00;5.60;99.90
44509;DHT22;30214;52.246;14.408;2023-12-20T05:40:27;5.60;99.90
44509;DHT22;30214;52.246;14.408;2023-12-20T05:42:55;5.60;99.90
44509;DHT22;30214;52.246;14.408;2023-12-20T05:45:22;5.60;99.90
44509;DHT22;30214;52.246;14.408;2023-12-20T05:47:50;5.50;99.90
44509;DHT22;30214;52.246;14.408;2023-12-20T05:50:17;5.50;99.90
44509;DHT22;30214;52.246;14.408;2023-12-20T05:52:44;5.50;99.90
44509;DHT22;30214;52.246;14.408;2023-12-20T05:55:14;5.40;99.90
44509;DHT22;30214;52.246;14.408;2023-12-20T05:57:41;5.40;99.90
44509;DHT22;30214;52.246;14.408;2023-12-20T06:00:13;5.40;99.90
44509;DHT22;30214;52.246;14.408;2023-12-20T06:02:41;5.40;99.90
44509;DHT22;30214;52.246;14.408;2023-12-20T06:05:08;5.40;99.90
44509;DHT22;30214;52.246;14.408;2023-12-20T06:07:36;5.40;99.90
44509;DHT22;30214;52.246;14.408;2023-12-20T06:10:04;5.40;99.90
44509;DHT22;30214;52.246;14.408;2023-12-20T06:12:34;5.40;99.90
44509;DHT22;30214;52.246;14.408;2023-12-20T06:15:02;5.40;99.90
44509;DHT22;30214;52.246;14.408;2023-12-20T06:17:31;5.50;99.90
44509;DHT22;30214;52.246;14.408;2023-12-20T06:19:59;5.50;99.90
44509;DHT22;30214;52.246;14.408;2023-12-20T06:22:26;5.40;99.90
44509;DHT22;30214;52.246;14.408;2023-12-20T06:24:53;5.30;99.90
44509;DHT22;30214;52.246;14.408;2023-12-20T06:27:21;5.30;99.90
44509;DHT22;30214;52.246;14.408;2023-12-20T06:29:50;5.30;99.90
44509;DHT22;30214;52.246;14.408;2023-12-20T06:32:17;5.20;99.90
44509;DHT22;30214;52.246;14.408;2023-12-20T06:34:44;5.20;99.90
44509;DHT22;30214;52.246;14.408;2023-12-20T06:37:14;5.20;99.90
44509;DHT22;30214;52.246;14.408;2023-12-20T06:39:41;5.20;99.90
44509;DHT22;30214;52.246;14.408;2023-12-20T06:42:11;5.20;99.90
44509;DHT22;30214;52.246;14.408;2023-12-20T06:44:39;5.20;99.90
44509;DHT22;30214;52.246;14.408;2023-12-20T06:47:08;5.20;99.90
44509;DHT22;30214;52.246;14.408;2023-12-20T06:49:35;5.20;99.90
44509;DHT22;30214;52.246;14.408;2023-12-20T06:52:03;5.10;99.90
44509;DHT22;30214;52.246;14.408;2023-12-20T06:54:32;5.10;99.90
44509;DHT22;30214;52.246;14.408;2023-12-20T06:57:00;5.00;99.90
44509;DHT22;30214;52.246;14.408;2023-12-20T06:59:28;4.90;99.90
44509;DHT22;30214;52.246;14.408;2023-12-20T07:01:56;5.00;99.90
44509;DHT22;30214;52.246;14.408;2023-12-20T07:04:24;4.90;99.90
44509;DHT22;30214;52.246;14.408;2023-12-20T07:06:52;4.90;99.90
44509;DHT22;30214;52.246;14.408;2023-12-20T07:09:23;4.90;99.90
44509;DHT22;30214;52.246;14.408;2023-12-20T07:11:50;4.80;99.90
44509;DHT22;30214;52.246;14.408;2023-12-20T07:14:17;4.80;99.90
44509;DHT22;30214;52.246;14.408;2023-12-20T07:16:49;4.80;99.90
44509;DHT22;30214;52.246;14.408;2023-12-20T07:19:17;4.70;99.90
44509;DHT22;30214;52.246;14.408;2023-12-20T07:21:46;4.70;99.90
44509;DHT22;30214;52.246;14.408;2023-12-20T07:24:17;4.70;99.90
44509;DHT22;30214;52.246;14.408;2023-12-20T07:26:48;4.70;99.90
44509;DHT22;30214;52.246;14.408;2023-12-20T07:29:16;4.70;99.90
44509;DHT22;30214;52.246;14.408;2023-12-20T07:31:44;4.70;99.90
44509;DHT22;30214;52.246;14.408;2023-12-20T07:34:11;4.70;99.90
44509;DHT22;30214;52.246;14.408;2023-12-20T07:36:38;4.70;99.90
44509;DHT22;30214;52.246;14.408;2023-12-20T07:39:07;4.70;99.90
44509;DHT22;30214;52.246;14.408;2023-12-20T07:41:35;4.80;99.90
44509;DHT22;30214;52.246;14.408;2023-12-20T07:44:03;4.80;99.90
44509;DHT22;30214;52.246;14.408;2023-12-20T07:46:32;4.80;99.90
44509;DHT22;30214;52.246;14.408;2023-12-20T07:49:00;4.90;99.90
44509;DHT22;30214;52.246;14.408;2023-12-20T07:51:29;4.90;99.90
44509;DHT22;30214;52.246;14.408;2023-12-20T07:53:59;4.90;99.90
44509;DHT22;30214;52.246;14.408;2023-12-20T07:56:27;4.90;99.90
44509;DHT22;30214;52.246;14.408;2023-12-20T07:58:55;5.00;99.90
44509;DHT22;30214;52.246;14.408;2023-12-20T08:01:25;5.00;99.90
44509;DHT22;30214;52.246;14.408;2023-12-20T08:03:53;5.00;99.90
44509;DHT22;30214;52.246;14.408;2023-12-20T08:06:21;5.00;99.90
44509;DHT22;30214;52.246;14.408;2023-12-20T08:08:51;4.90;99.90
44509;DHT22;30214;52.246;14.408;2023-12-20T08:11:18;5.00;99.90
44509;DHT22;30214;52.246;14.408;2023-12-20T08:13:47;5.00;99.90
44509;DHT22;30214;52.246;14.408;2023-12-20T08:16:14;5.00;99.90
44509;DHT22;30214;52.246;14.408;2023-12-20T08:18:43;4.90;99.90
44509;DHT22;30214;52.246;14.408;2023-12-20T08:21:11;4.90;99.90
44509;DHT22;30214;52.246;14.408;2023-12-20T08:23:38;4.90;99.90
44509;DHT22;30214;52.246;14.408;2023-12-20T08:26:09;4.90;99.90
44509;DHT22;30214;52.246;14.408;2023-12-20T08:28:37;4.90;99.90
44509;DHT22;30214;52.246;14.408;2023-12-20T08:31:05;4.90;99.90
44509;DHT22;30214;52.246;14.408;2023-12-20T08:33:33;4.90;99.90
44509;DHT22;30214;52.246;14.408;2023-12-20T08:36:01;4.90;99.90
44509;DHT22;30214;52.246;14.408;2023-12-20T08:38:31;4.90;99.90
44509;DHT22;30214;52.246;14.408;2023-12-20T08:40:58;4.90;99.90
44509;DHT22;30214;52.246;14.408;2023-12-20T08:43:27;4.90;99.90
44509;DHT22;30214;52.246;14.408;2023-12-20T08:45:54;4.90;99.90
44509;DHT22;30214;52.246;14.408;2023-12-20T08:48:23;4.90;99.90
44509;DHT22;30214;52.246;14.408;2023-12-20T08:50:51;4.90;99.90
44509;DHT22;30214;52.246;14.408;2023-12-20T08:53:18;5.00;99.90
44509;DHT22;30214;52.246;14.408;2023-12-20T08:55:46;5.00;99.90
44509;DHT22;30214;52.246;14.408;2023-12-20T08:58:14;5.00;99.90
44509;DHT22;30214;52.246;14.408;2023-12-20T09:00:45;4.90;99.90
44509;DHT22;30214;52.246;14.408;2023-12-20T09:03:13;4.90;99.90
44509;DHT22;30214;52.246;14.408;2023-12-20T09:05:42;4.90;99.90
44509;DHT22;30214;52.246;14.408;2023-12-20T09:08:09;4.90;99.90
44509;DHT22;30214;52.246;14.408;2023-12-20T09:10:38;5.00;99.90
44509;DHT22;30214;52.246;14.408;2023-12-20T09:13:05;5.00;99.90
44509;DHT22;30214;52.246;14.408;2023-12-20T09:15:38;5.00;99.90
44509;DHT22;30214;52.246;14.408;2023-12-20T09:18:06;4.90;99.90
44509;DHT22;30214;52.246;14.408;2023-12-20T09:20:34;4.90;99.90
44509;DHT22;30214;52.246;14.408;2023-12-20T09:23:03;4.90;99.90
44509;DHT22;30214;52.246;14.408;2023-12-20T09:25:31;4.90;99.90
44509;DHT22;30214;52.246;14.408;2023-12-20T09:27:58;4.80;99.90
44509;DHT22;30214;52.246;14.408;2023-12-20T09:30:25;4.90;99.90
44509;DHT22;30214;52.246;14.408;2023-12-20T09:32:56;4.80;99.90
44509;DHT22;30214;52.246;14.408;2023-12-20T09:35:23;4.90;99.90
44509;DHT22;30214;52.246;14.408;2023-12-20T09:37:51;4.90;99.90
44509;DHT22;30214;52.246;14.408;2023-12-20T09:40:20;5.00;99.90
44509;DHT22;30214;52.246;14.408;2023-12-20T09:42:56;5.00;99.90
44509;DHT22;30214;52.246;14.408;2023-12-20T09:45:24;5.00;99.90
44509;DHT22;30214;52.246;14.408;2023-12-20T09:47:53;5.10;99.90
44509;DHT22;30214;52.246;14.408;2023-12-20T09:50:21;5.00;99.90
44509;DHT22;30214;52.246;14.408;2023-12-20T09:52:51;5.00;99.90
44509;DHT22;30214;52.246;14.408;2023-12-20T09:55:20;5.00;99.90
44509;DHT22;30214;52.246;14.408;2023-12-20T09:57:49;5.10;99.90
44509;DHT22;30214;52.246;14.408;2023-12-20T10:00:17;5.20;99.90
44509;DHT22;30214;52.246;14.408;2023-12-20T10:02:49;5.20;99.90
44509;DHT22;30214;52.246;14.408;2023-12-20T10:05:18;5.20;99.90
44509;DHT22;30214;52.246;14.408;2023-12-20T10:07:46;5.30;99.90
44509;DHT22;30214;52.246;14.408;2023-12-20T10:10:14;5.30;99.90
44509;DHT22;30214;52.246;14.408;2023-12-20T10:13:02;5.20;99.90
44509;DHT22;30214;52.246;14.408;2023-12-20T10:15:33;5.30;99.90
44509;DHT22;30214;52.246;14.408;2023-12-20T10:18:02;5.30;99.90
44509;DHT22;30214;52.246;14.408;2023-12-20T10:20:31;5.30;99.90
44509;DHT22;30214;52.246;14.408;2023-12-20T10:23:01;5.30;99.90
44509;DHT22;30214;52.246;14.408;2023-12-20T10:25:28;5.30;99.90
44509;DHT22;30214;52.246;14.408;2023-12-20T10:28:11;5.30;99.90
44509;DHT22;30214;52.246;14.408;2023-12-20T10:30:40;5.40;99.90
44509;DHT22;30214;52.246;14.408;2023-12-20T10:33:09;5.40;99.90
44509;DHT22;30214;52.246;14.408;2023-12-20T10:35:39;5.50;99.90
44509;DHT22;30214;52.246;14.408;2023-12-20T10:38:07;5.50;99.90
44509;DHT22;30214;52.246;14.408;2023-12-20T10:40:36;5.50;99.90
44509;DHT22;30214;52.246;14.408;2023-12-20T10:43:04;5.40;99.90
44509;DHT22;30214;52.246;14.408;2023-12-20T10:45:34;5.50;99.90
44509;DHT22;30214;52.246;14.408;2023-12-20T10:48:02;5.50;99.90
44509;DHT22;30214;52.246;14.408;2023-12-20T10:50:31;5.50;99.90
44509;DHT22;30214;52.246;14.408;2023-12-20T10:52:59;5.50;99.90
44509;DHT22;30214;52.246;14.408;2023-12-20T10:55:26;5.50;99.90
44509;DHT22;30214;52.246;14.408;2023-12-20T10:57:58;5.60;99.90
44509;DHT22;30214;52.246;14.408;2023-12-20T11:00:28;5.60;99.90
44509;DHT22;30214;52.246;14.408;2023-12-20T11:03:00;5.60;99.90
44509;DHT22;30214;52.246;14.408;2023-12-20T11:05:33;5.60;99.90
44509;DHT22;30214;52.246;14.408;2023-12-20T11:08:12;5.70;99.90
44509;DHT22;30214;52.246;14.408;2023-12-20T11:10:54;5.70;99.90
44509;DHT22;30214;52.246;14.408;2023-12-20T11:13:26;5.70;99.90
44509;DHT22;30214;52.246;14.408;2023-12-20T11:15:57;5.70;99.90
44509;DHT22;30214;52.246;14.408;2023-12-20T11:18:30;5.70;99.90
44509;DHT22;30214;52.246;14.408;2023-12-20T11:21:00;5.80;99.90
44509;DHT22;30214;52.246;14.408;2023-12-20T11:23:35;5.80;99.90
44509;DHT22;30214;52.246;14.408;2023-12-20T11:26:04;5.90;99.90
44509;DHT22;30214;52.246;14.408;2023-12-20T11:28:36;5.90;99.90
44509;DHT22;30214;52.246;14.408;2023-12-20T11:31:09;5.90;99.90
44509;DHT22;30214;52.246;14.408;2023-12-20T11:33:43;5.90;99.90
44509;DHT22;30214;52.246;14.408;2023-12-20T11:36:15;6.30;99.90
44509;DHT22;30214;52.246;14.408;2023-12-20T11:38:55;6.10;99.90
44509;DHT22;30214;52.246;14.408;2023-12-20T11:41:24;6.00;99.90
44509;DHT22;30214;52.246;14.408;2023-12-20T11:43:53;5.90;99.90
44509;DHT22;30214;52.246;14.408;2023-12-20T11:46:21;6.00;99.90
44509;DHT22;30214;52.246;14.408;2023-12-20T11:48:50;6.00;99.90
44509;DHT22;30214;52.246;14.408;2023-12-20T11:51:18;6.00;99.90
44509;DHT22;30214;52.246;14.408;2023-12-20T11:53:50;6.00;99.90
44509;DHT22;30214;52.246;14.408;2023-12-20T11:56:18;6.00;99.90
44509;DHT22;30214;52.246;14.408;2023-12-20T11:58:46;6.10;99.90
44509;DHT22;30214;52.246;14.408;2023-12-20T12:01:14;6.00;99.90
44509;DHT22;30214;52.246;14.408;2023-12-20T12:03:41;6.10;99.90
44509;DHT22;30214;52.246;14.408;2023-12-20T12:06:10;6.10;99.90
44509;DHT22;30214;52.246;14.408;2023-12-20T12:08:41;6.20;99.90
44509;DHT22;30214;52.246;14.408;2023-12-20T12:11:09;6.20;99.90
44509;DHT22;30214;52.246;14.408;2023-12-20T12:13:38;6.30;99.90
44509;DHT22;30214;52.246;14.408;2023-12-20T12:16:08;6.30;99.90
44509;DHT22;30214;52.246;14.408;2023-12-20T12:18:39;6.30;99.90
44509;DHT22;30214;52.246;14.408;2023-12-20T12:21:08;6.30;99.90
44509;DHT22;30214;52.246;14.408;2023-12-20T12:23:37;6.30;99.90
44509;DHT22;30214;52.246;14.408;2023-12-20T12:26:05;6.30;99.90
44509;DHT22;30214;52.246;14.408;2023-12-20T12:28:34;6.30;99.90
44509;DHT22;30214;52.246;14.408;2023-12-20T12:31:03;6.30;99.90
44509;DHT22;30214;52.246;14.408;2023-12-20T12:33:31;6.30;99.90
44509;DHT22;30214;52.246;14.408;2023-12-20T12:36:01;6.30;99.90
44509;DHT22;30214;52.246;14.408;2023-12-20T12:38:33;6.20;99.90
44509;DHT22;30214;52.246;14.408;2023-12-20T12:41:01;6.30;99.90
44509;DHT22;30214;52.246;14.408;2023-12-20T12:43:28;6.20;99.90
44509;DHT22;30214;52.246;14.408;2023-12-20T12:45:55;6.20;99.90
44509;DHT22;30214;52.246;14.408;2023-12-20T12:48:23;6.20;99.90
44509;DHT22;30214;52.246;14.408;2023-12-20T12:50:50;6.30;99.90
44509;DHT22;30214;52.246;14.408;2023-12-20T12:53:19;6.20;99.90
44509;DHT22;30214;52.246;14.408;2023-12-20T12:55:53;6.20;99.90
44509;DHT22;30214;52.246;14.408;2023-12-20T12:58:23;6.10;99.90
44509;DHT22;30214;52.246;14.408;2023-12-20T13:00:52;6.10;99.90
44509;DHT22;30214;52.246;14.408;2023-12-20T13:03:19;6.10;99.90
44509;DHT22;30214;52.246;14.408;2023-12-20T13:05:48;6.10;99.90
44509;DHT22;30214;52.246;14.408;2023-12-20T13:08:17;6.10;99.90
44509;DHT22;30214;52.246;14.408;2023-12-20T13:10:44;6.10;99.90
44509;DHT22;30214;52.246;14.408;2023-12-20T13:13:14;6.10;99.90
44509;DHT22;30214;52.246;14.408;2023-12-20T13:15:41;6.10;99.90
44509;DHT22;30214;52.246;14.408;2023-12-20T13:18:13;6.20;99.90
44509;DHT22;30214;52.246;14.408;2023-12-20T13:20:41;6.20;99.90
44509;DHT22;30214;52.246;14.408;2023-12-20T13:23:08;6.20;99.90
44509;DHT22;30214;52.246;14.408;2023-12-20T13:25:36;6.20;99.90
44509;DHT22;30214;52.246;14.408;2023-12-20T13:28:06;6.20;99.90
44509;DHT22;30214;52.246;14.408;2023-12-20T13:30:35;6.20;99.90
44509;DHT22;30214;52.246;14.408;2023-12-20T13:33:04;6.10;99.90
44509;DHT22;30214;52.246;14.408;2023-12-20T13:35:34;6.10;99.90
44509;DHT22;30214;52.246;14.408;2023-12-20T13:38:08;6.10;99.90
44509;DHT22;30214;52.246;14.408;2023-12-20T13:40:35;6.10;99.90
44509;DHT22;30214;52.246;14.408;2023-12-20T13:43:03;6.20;99.90
44509;DHT22;30214;52.246;14.408;2023-12-20T13:45:31;6.20;99.90
44509;DHT22;30214;52.246;14.408;2023-12-20T13:48:00;6.10;99.90
44509;DHT22;30214;52.246;14.408;2023-12-20T13:50:28;6.10;99.90
44509;DHT22;30214;52.246;14.408;2023-12-20T13:52:55;6.20;99.90
44509;DHT22;30214;52.246;14.408;2023-12-20T13:55:23;6.20;99.90
44509;DHT22;30214;52.246;14.408;2023-12-20T13:57:53;6.10;99.90
44509;DHT22;30214;52.246;14.408;2023-12-20T14:00:21;6.10;99.90
44509;DHT22;30214;52.246;14.408;2023-12-20T14:02:48;6.10;99.90
44509;DHT22;30214;52.246;14.408;2023-12-20T14:05:17;6.00;99.90
44509;DHT22;30214;52.246;14.408;2023-12-20T14:07:45;5.90;99.90
44509;DHT22;30214;52.246;14.408;2023-12-20T14:10:12;5.90;99.90
44509;DHT22;30214;52.246;14.408;2023-12-20T14:12:41;5.80;99.90
44509;DHT22;30214;52.246;14.408;2023-12-20T14:15:11;5.90;99.90
44509;DHT22;30214;52.246;14.408;2023-12-20T14:17:39;5.80;99.90
44509;DHT22;30214;52.246;14.408;2023-12-20T14:20:08;5.90;99.90
44509;DHT22;30214;52.246;14.408;2023-12-20T14:22:39;5.90;99.90
44509;DHT22;30214;52.246;14.408;2023-12-20T14:25:11;5.80;99.90
44509;DHT22;30214;52.246;14.408;2023-12-20T14:27:39;5.80;99.90
44509;DHT22;30214;52.246;14.408;2023-12-20T14:30:10;5.70;99.90
44509;DHT22;30214;52.246;14.408;2023-12-20T14:32:39;5.60;99.90
44509;DHT22;30214;52.246;14.408;2023-12-20T14:35:08;5.60;99.90
44509;DHT22;30214;52.246;14.408;2023-12-20T14:37:35;5.60;99.90
44509;DHT22;30214;52.246;14.408;2023-12-20T14:40:08;5.60;99.90
44509;DHT22;30214;52.246;14.408;2023-12-20T14:42:41;5.60;99.90
44509;DHT22;30214;52.246;14.408;2023-12-20T14:45:09;5.60;99.90
44509;DHT22;30214;52.246;14.408;2023-12-20T14:47:37;5.60;99.90
44509;DHT22;30214;52.246;14.408;2023-12-20T14:50:06;5.60;99.90
44509;DHT22;30214;52.246;14.408;2023-12-20T14:52:34;5.50;99.90
44509;DHT22;30214;52.246;14.408;2023-12-20T14:55:06;5.50;99.90
44509;DHT22;30214;52.246;14.408;2023-12-20T14:57:38;5.40;99.90
44509;DHT22;30214;52.246;14.408;2023-12-20T15:00:06;5.40;99.90
44509;DHT22;30214;52.246;14.408;2023-12-20T15:02:34;5.30;99.90
44509;DHT22;30214;52.246;14.408;2023-12-20T15:05:03;5.20;99.90
44509;DHT22;30214;52.246;14.408;2023-12-20T15:07:31;5.10;99.90
44509;DHT22;30214;52.246;14.408;2023-12-20T15:10:00;5.00;99.90
44509;DHT22;30214;52.246;14.408;2023-12-20T15:12:29;4.90;99.90
44509;DHT22;30214;52.246;14.408;2023-12-20T15:14:56;4.80;99.90
44509;DHT22;30214;52.246;14.408;2023-12-20T15:17:26;4.70;99.90
44509;DHT22;30214;52.246;14.408;2023-12-20T15:19:54;4.70;99.90
44509;DHT22;30214;52.246;14.408;2023-12-20T15:22:21;4.60;99.90
44509;DHT22;30214;52.246;14.408;2023-12-20T15:24:49;4.60;99.90
44509;DHT22;30214;52.246;14.408;2023-12-20T15:27:17;4.60;99.90
44509;DHT22;30214;52.246;14.408;2023-12-20T15:29:46;4.50;99.90
44509;DHT22;30214;52.246;14.408;2023-12-20T15:32:15;4.40;99.90
44509;DHT22;30214;52.246;14.408;2023-12-20T15:34:44;4.40;99.90
44509;DHT22;30214;52.246;14.408;2023-12-20T15:37:12;4.50;99.90
44509;DHT22;30214;52.246;14.408;2023-12-20T15:39:41;4.50;99.90
44509;DHT22;30214;52.246;14.408;2023-12-20T15:42:09;4.60;99.90
44509;DHT22;30214;52.246;14.408;2023-12-20T15:44:39;4.50;99.90
44509;DHT22;30214;52.246;14.408;2023-12-20T15:47:08;4.50;99.90